Time;durP1;ratioP1;P1;durP2;ratioP2;P2;SDS_P1;SDS_P2;PMS_P1;PMS_P2;Temp;Humidity;BMP_temperature;BMP_pressure;BME280_temperature;BME280_humidity;BME280_pressure;Samples;Min_cycle;Max_cycle;Signal;HPM_P1;HPM_P2
2021/07/08 07:03:57;;;;;;;;;14.00;13.00;;;;;30.10;40.83;99245.28;6158000;28;97020;-65
2021/07/08 07:07:00;;;;;;;;;14.00;12.00;;;;;30.16;41.14;99233.97;6160003;28;97524;-62
2021/07/08 07:10:04;;;;;;;;;15.50;14.00;;;;;30.47;41.38;99240.69;6153767;28;97422;-66
2021/07/08 07:13:12;;;;;;;;;15.60;14.60;;;;;30.62;40.11;99246.75;6159438;28;97162;-64
2021/07/08 07:16:15;;;;;;;;;14.60;13.00;;;;;30.72;40.21;99247.13;6159773;28;97668;-66
2021/07/08 07:19:21;;;;;;;;;13.50;13.00;;;;;30.96;40.50;99240.75;6132207;28;97512;-66
2021/07/08 07:22:24;;;;;;;;;14.75;13.25;;;;;31.16;39.25;99236.25;6156317;28;96613;-66
2021/07/08 07:25:28;;;;;;;;;14.00;13.00;;;;;31.15;39.33;99240.19;6139832;28;99573;-63
2021/07/08 07:28:31;;;;;;;;;14.60;13.00;;;;;31.33;39.23;99233.19;6160764;28;97472;-63
2021/07/08 07:31:35;;;;;;;;;15.50;13.25;;;;;31.61;39.34;99228.53;6159656;28;97134;-64
2021/07/08 07:34:39;;;;;;;;;12.75;12.75;;;;;31.88;38.96;99224.13;6153578;28;98048;-65
2021/07/08 07:37:43;;;;;;;;;16.00;14.40;;;;;32.15;38.62;99228.13;6158140;28;97458;-64
2021/07/08 07:40:46;;;;;;;;;14.80;13.80;;;;;32.36;38.35;99223.09;6148898;28;96608;-64
2021/07/08 07:43:49;;;;;;;;;13.40;13.40;;;;;32.50;37.33;99219.91;6161203;28;96569;-64
2021/07/08 07:46:52;;;;;;;;;12.00;11.60;;;;;32.65;37.37;99216.31;6156110;28;96507;-65
2021/07/08 07:49:58;;;;;;;;;16.60;15.00;;;;;32.64;36.77;99214.72;6146321;28;98506;-63
2021/07/08 07:53:02;;;;;;;;;15.00;14.00;;;;;32.65;36.82;99203.16;6163852;28;97532;-63
2021/07/08 07:56:08;;;;;;;;;16.40;15.00;;;;;32.82;37.08;99212.34;6146076;28;98495;-63
2021/07/08 07:59:14;;;;;;;;;12.20;11.20;;;;;33.05;37.08;99202.94;6136417;28;98660;-63
2021/07/08 08:02:18;;;;;;;;;13.20;13.00;;;;;33.27;36.65;99206.28;6140925;28;96714;-64
2021/07/08 08:05:41;;;;;;;;;16.00;14.00;;;;;33.34;35.94;99210.03;6158444;28;97156;-63
2021/07/08 08:08:43;;;;;;;;;16.00;14.40;;;;;33.30;36.24;99197.16;6163373;28;97579;-63
2021/07/08 08:11:46;;;;;;;;;16.00;13.00;;;;;33.40;36.56;99200.19;6162454;28;97057;-63
2021/07/08 08:14:50;;;;;;;;;12.00;11.60;;;;;33.70;36.29;99202.47;6164854;28;97458;-62
2021/07/08 08:17:53;;;;;;;;;14.00;13.40;;;;;33.90;35.28;99204.06;6164642;28;96452;-62
2021/07/08 08:20:58;;;;;;;;;14.00;14.00;;;;;34.05;35.26;99205.97;6165148;28;97590;-62
2021/07/08 08:24:02;;;;;;;;;13.00;12.25;;;;;34.28;35.42;99190.06;6165059;28;97479;-63
2021/07/08 08:27:05;;;;;;;;;17.00;15.20;;;;;34.52;33.87;99199.25;6165265;28;96609;-62
2021/07/08 08:30:12;;;;;;;;;16.00;15.00;;;;;34.51;33.59;99190.06;6147646;28;96724;-63
2021/07/08 08:33:15;;;;;;;;;14.40;13.40;;;;;34.65;34.63;99198.69;6164322;28;97464;-63
2021/07/08 08:36:20;;;;;;;;;18.50;17.00;;;;;34.67;33.56;99199.16;6164382;28;97454;-62
2021/07/08 08:39:23;;;;;;;;;15.20;15.20;;;;;34.82;34.66;99202.19;6146864;28;97589;-64
2021/07/08 08:42:27;;;;;;;;;15.00;14.80;;;;;34.92;33.34;99193.16;6146843;28;97207;-63
2021/07/08 08:45:33;;;;;;;;;15.50;14.50;;;;;34.87;34.71;99173.88;6147028;28;98510;-63
2021/07/08 08:48:36;;;;;;;;;15.00;14.20;;;;;35.25;33.74;99189.69;6164494;28;97457;-62
2021/07/08 08:51:43;;;;;;;;;15.00;13.60;;;;;35.50;33.29;99186.03;6164097;28;96745;-64
2021/07/08 08:54:47;;;;;;;;;16.00;15.00;;;;;35.74;33.26;99179.16;6163837;28;97436;-65
2021/07/08 08:57:50;;;;;;;;;16.25;15.00;;;;;35.92;33.13;99185.78;6147104;28;97089;-64
2021/07/08 09:00:56;;;;;;;;;15.40;14.40;;;;;36.05;32.67;99180.72;6138928;28;97122;-62
2021/07/08 09:03:59;;;;;;;;;17.00;15.00;;;;;35.99;33.10;99185.88;6144498;28;97368;-64
2021/07/08 09:07:23;;;;;;;;;16.00;16.00;;;;;36.00;32.18;99176.28;6157618;28;96699;-64
2021/07/08 09:10:26;;;;;;;;;17.40;17.00;;;;;35.70;32.38;99169.09;6157807;28;98488;-63
2021/07/08 09:13:44;;;;;;;;;18.00;16.00;;;;;35.76;33.15;99173.16;6161681;28;97497;-64
2021/07/08 09:16:47;;;;;;;;;15.00;14.00;;;;;35.92;32.80;99162.56;6157399;28;96409;-63
2021/07/08 09:20:08;;;;;;;;;16.60;15.60;;;;;36.02;32.12;99151.41;6162745;28;97459;-61
2021/07/08 09:23:16;;;;;;;;;15.00;15.00;;;;;36.04;32.91;99149.03;6151294;28;97550;-61
2021/07/08 09:26:19;;;;;;;;;16.00;15.00;;;;;36.17;32.15;99151.59;6155360;28;96826;-62
2021/07/08 09:29:24;;;;;;;;;17.80;17.00;;;;;36.35;32.39;99150.59;6159587;28;97202;-63
2021/07/08 09:32:27;;;;;;;;;18.00;17.00;;;;;36.24;32.33;99154.47;6157597;28;96630;-63
2021/07/08 09:35:35;;;;;;;;;20.60;18.40;;;;;36.04;32.78;99151.84;6162393;28;96723;-62
2021/07/08 09:38:41;;;;;;;;;17.00;15.75;;;;;36.08;33.23;99146.25;6161576;28;97635;-62
2021/07/08 09:41:50;;;;;;;;;18.50;18.00;;;;;36.20;32.69;99146.03;6143641;28;96548;-63
2021/07/08 09:45:02;;;;;;;;;18.25;17.00;;;;;36.05;33.36;99144.25;6162036;28;96690;-63
2021/07/08 09:48:18;;;;;;;;;18.00;17.00;;;;;36.16;32.54;99139.59;6141661;28;96532;-62
2021/07/08 09:51:29;;;;;;;;;19.00;19.00;;;;;35.58;33.24;99131.66;6142825;28;97850;-62
2021/07/08 09:54:50;;;;;;;;;19.20;18.20;;;;;35.51;33.84;99130.78;6161302;28;96917;-62
2021/07/08 09:57:53;;;;;;;;;18.80;18.00;;;;;35.52;34.71;99118.38;6131708;28;98108;-62
2021/07/08 10:00:57;;;;;;;;;19.80;17.40;;;;;35.65;34.93;99122.53;6150175;28;97758;-64
2021/07/08 10:04:01;;;;;;;;;19.00;18.00;;;;;35.82;34.22;99121.16;6161880;28;97485;-60
2021/07/08 10:07:05;;;;;;;;;16.00;15.40;;;;;36.14;34.23;99121.50;6161992;28;97456;-62
2021/07/08 10:10:11;;;;;;;;;18.80;18.20;;;;;36.36;33.28;99118.47;6162650;28;96640;-62
2021/07/08 10:13:15;;;;;;;;;18.00;17.40;;;;;36.12;33.44;99121.84;6146047;28;97089;-61
2021/07/08 10:16:19;;;;;;;;;18.25;18.00;;;;;36.00;34.14;99125.75;6143859;28;96878;-62
2021/07/08 10:19:23;;;;;;;;;19.00;19.00;;;;;36.06;34.12;99120.59;6161571;28;97500;-63
2021/07/08 10:22:27;;;;;;;;;17.20;17.00;;;;;36.32;33.74;99114.03;6146272;28;96655;-62
2021/07/08 10:25:32;;;;;;;;;20.00;19.00;;;;;36.58;33.05;99113.84;6161129;28;97567;-62
2021/07/08 10:28:40;;;;;;;;;20.20;19.20;;;;;36.64;34.35;99109.53;6143691;28;97352;-63
2021/07/08 10:31:49;;;;;;;;;19.00;18.00;;;;;36.80;33.75;99093.16;6161898;28;97394;-62
2021/07/08 10:34:53;;;;;;;;;19.00;18.60;;;;;37.09;33.19;99101.81;6160741;28;97662;-63
2021/07/08 10:37:56;;;;;;;;;18.50;18.00;;;;;37.32;33.17;99105.13;6160949;28;96541;-62
2021/07/08 10:41:03;;;;;;;;;19.60;18.00;;;;;37.04;33.05;99093.72;6143993;28;97004;-60
2021/07/08 10:44:40;;;;;;;;;19.00;18.80;;;;;37.13;33.34;99083.78;6153365;28;97503;-63
2021/07/08 10:47:43;;;;;;;;;18.60;17.00;;;;;37.07;33.05;99095.75;6152179;28;96586;-61
2021/07/08 10:50:47;;;;;;;;;18.25;17.50;;;;;37.35;32.61;99084.66;6156234;28;97367;-60
2021/07/08 10:53:51;;;;;;;;;21.00;20.00;;;;;37.34;32.43;99088.66;6141494;28;96802;-63
2021/07/08 10:56:57;;;;;;;;;20.00;19.00;;;;;37.11;34.00;99074.09;6159104;28;96677;-64
2021/07/08 11:00:00;;;;;;;;;18.20;18.00;;;;;37.00;33.66;99076.81;6159892;28;97742;-60
2021/07/08 11:03:03;;;;;;;;;20.00;19.00;;;;;37.23;33.74;99070.97;6156268;28;97106;-62
2021/07/08 11:06:22;;;;;;;;;20.00;19.60;;;;;37.48;33.41;99069.06;6157147;28;96591;-61
2021/07/08 11:09:35;;;;;;;;;17.00;16.60;;;;;37.55;33.19;99059.84;6158903;28;97480;-60
2021/07/08 11:12:40;;;;;;;;;19.60;18.60;;;;;37.77;33.97;99060.72;6152171;28;97560;-62
2021/07/08 11:15:53;;;;;;;;;19.40;18.00;;;;;37.76;32.35;99068.34;6159197;28;97896;-62
2021/07/08 11:19:01;;;;;;;;;20.25;18.25;;;;;37.35;32.42;99073.41;6152105;28;97432;-62
2021/07/08 11:22:08;;;;;;;;;19.20;18.20;;;;;37.25;32.50;99068.53;6158093;28;96647;-63
2021/07/08 11:25:17;;;;;;;;;20.00;19.50;;;;;37.17;33.20;99058.47;6145366;28;96490;-63
2021/07/08 11:28:30;;;;;;;;;20.00;19.00;;;;;37.29;34.63;99049.66;6160341;28;97485;-62
2021/07/08 11:31:36;;;;;;;;;21.00;20.00;;;;;37.66;33.74;99049.44;6152946;28;96659;-60
2021/07/08 11:34:50;;;;;;;;;21.00;20.00;;;;;37.41;32.97;99052.13;6143086;28;97792;-61
2021/07/08 11:37:56;;;;;;;;;22.00;21.00;;;;;37.31;33.40;99028.41;6158911;28;97133;-61
2021/07/08 11:40:59;;;;;;;;;18.25;18.00;;;;;37.19;32.76;99027.97;6161157;28;97023;-61
2021/07/08 11:44:06;;;;;;;;;20.60;19.60;;;;;37.47;32.72;99033.69;6164737;28;96741;-61
2021/07/08 11:47:10;;;;;;;;;19.40;19.00;;;;;37.40;33.38;99033.66;6159232;28;97194;-63
2021/07/08 11:50:18;;;;;;;;;20.00;20.00;;;;;37.17;33.31;99027.56;6144566;28;97754;-64
2021/07/08 11:53:22;;;;;;;;;20.00;20.00;;;;;37.51;33.88;99026.06;6144638;28;97449;-64
2021/07/08 11:56:27;;;;;;;;;20.00;20.00;;;;;37.88;33.11;99024.91;6162265;28;97579;-63
2021/07/08 11:59:32;;;;;;;;;22.80;21.40;;;;;37.98;32.66;99027.75;6142727;28;96623;-63
2021/07/08 12:02:37;;;;;;;;;21.00;20.00;;;;;38.16;32.58;99024.97;6151521;28;96753;-62
2021/07/08 12:05:40;;;;;;;;;22.00;20.40;;;;;38.36;31.90;99025.38;6155387;28;97509;-61
2021/07/08 12:08:45;;;;;;;;;20.40;19.40;;;;;38.57;32.45;99023.34;6162691;28;96678;-62
2021/07/08 12:11:52;;;;;;;;;18.00;18.00;;;;;38.25;32.37;99016.13;6153069;28;96437;-61
2021/07/08 12:15:00;;;;;;;;;19.60;19.00;;;;;38.17;33.29;99001.22;6154667;28;97483;-62
2021/07/08 12:18:03;;;;;;;;;20.00;19.00;;;;;38.34;32.72;99000.41;6156375;28;97394;-63
2021/07/08 12:21:20;;;;;;;;;21.50;21.00;;;;;38.27;31.63;98989.16;6161889;28;98211;-62
2021/07/08 12:24:25;;;;;;;;;21.00;20.00;;;;;38.14;33.16;98987.97;6160146;28;97517;-62
2021/07/08 12:27:38;;;;;;;;;20.00;19.00;;;;;38.32;33.60;98990.75;6152078;28;96769;-62
2021/07/08 12:30:42;;;;;;;;;18.80;18.00;;;;;38.56;32.92;98993.56;6162667;28;96587;-62
2021/07/08 12:34:01;;;;;;;;;22.00;21.00;;;;;38.70;31.50;98994.75;6161173;28;97399;-62
2021/07/08 12:37:13;;;;;;;;;20.00;20.00;;;;;38.83;32.60;98995.91;6158994;28;96736;-63
2021/07/08 12:40:23;;;;;;;;;20.60;20.40;;;;;38.44;31.76;98987.56;6147854;28;99518;-63
2021/07/08 12:43:27;;;;;;;;;20.60;20.00;;;;;38.01;33.06;98989.59;6161629;28;97951;-63
2021/07/08 12:46:32;;;;;;;;;22.60;21.60;;;;;37.63;33.06;98986.31;6160963;28;96485;-63
2021/07/08 12:49:36;;;;;;;;;18.25;18.25;;;;;37.20;34.16;98976.13;6157553;28;96855;-63
2021/07/08 12:52:42;;;;;;;;;21.67;20.00;;;;;37.10;34.80;98974.91;6160154;28;96693;-63
2021/07/08 12:55:48;;;;;;;;;20.00;18.00;;;;;37.21;35.49;98964.50;6136223;28;96746;-62
2021/07/08 12:58:57;;;;;;;;;21.60;20.00;;;;;37.56;35.11;98968.63;6162987;28;97402;-62
2021/07/08 13:02:01;;;;;;;;;25.00;22.60;;;;;37.40;35.09;98962.53;6156698;28;96642;-64
2021/07/08 13:05:08;;;;;;;;;23.80;20.80;;;;;37.50;34.41;98965.38;6157426;28;96768;-64
2021/07/08 13:08:14;;;;;;;;;21.40;21.00;;;;;37.50;34.31;98967.38;6162237;28;97503;-63
2021/07/08 13:11:22;;;;;;;;;22.00;21.00;;;;;37.43;34.57;98959.75;6160719;28;97546;-61
2021/07/08 13:14:27;;;;;;;;;20.00;20.00;;;;;37.72;34.15;98952.16;6120281;28;98579;-62
2021/07/08 13:17:32;;;;;;;;;21.00;20.40;;;;;37.79;34.58;98952.16;6152412;28;97981;-64
2021/07/08 13:20:39;;;;;;;;;19.80;19.00;;;;;37.63;34.48;98952.53;6163810;28;96712;-63
2021/07/08 13:23:43;;;;;;;;;22.00;21.00;;;;;37.43;34.25;98926.00;6143961;28;96732;-62
2021/07/08 13:26:46;;;;;;;;;21.60;21.00;;;;;37.32;34.72;98939.22;6158983;28;97454;-64
2021/07/08 13:29:50;;;;;;;;;20.20;19.00;;;;;37.40;35.01;98951.28;6159003;28;96710;-64
2021/07/08 13:33:10;;;;;;;;;20.00;19.00;;;;;37.52;35.62;98948.91;6159125;28;97540;-63
2021/07/08 13:36:18;;;;;;;;;24.00;23.00;;;;;37.72;34.99;98943.72;6148173;28;96727;-64
2021/07/08 13:39:25;;;;;;;;;22.00;21.00;;;;;37.86;35.12;98940.91;6143255;28;96613;-64
2021/07/08 13:42:29;;;;;;;;;24.60;23.00;;;;;37.98;34.48;98928.41;6159322;28;97473;-64
2021/07/08 13:45:33;;;;;;;;;23.50;22.00;;;;;38.09;34.60;98943.31;6162308;28;97411;-63
2021/07/08 13:48:39;;;;;;;;;22.60;20.60;;;;;38.11;34.48;98947.34;6152904;28;96693;-63
2021/07/08 13:51:46;;;;;;;;;21.25;20.25;;;;;37.95;35.84;98937.69;6158627;28;97488;-62
2021/07/08 13:54:50;;;;;;;;;22.00;19.40;;;;;38.17;35.79;98940.09;6165118;28;97056;-62
2021/07/08 13:57:53;;;;;;;;;20.60;18.80;;;;;38.20;34.53;98934.88;6143747;28;96520;-63
2021/07/08 14:00:56;;;;;;;;;20.20;20.00;;;;;38.22;35.38;98929.66;6148372;28;97463;-63
2021/07/08 14:04:01;;;;;;;;;23.25;22.00;;;;;38.20;35.02;98932.84;6158322;28;96681;-63
2021/07/08 14:07:05;;;;;;;;;23.00;21.00;;;;;38.29;34.77;98923.97;6154028;28;96753;-63
2021/07/08 14:10:10;;;;;;;;;22.75;21.75;;;;;38.29;34.85;98919.16;6161890;28;96677;-62
2021/07/08 14:13:13;;;;;;;;;21.00;20.40;;;;;38.38;34.74;98918.72;6141888;28;96837;-62
2021/07/08 14:16:17;;;;;;;;;22.00;20.50;;;;;38.35;35.32;98926.00;6153695;28;97331;-63
2021/07/08 14:19:22;;;;;;;;;22.00;22.00;;;;;38.26;35.02;98914.34;6163660;28;97537;-63
2021/07/08 14:22:25;;;;;;;;;24.00;21.40;;;;;38.25;35.66;98907.09;6162152;28;97356;-62
2021/07/08 14:25:28;;;;;;;;;19.60;18.20;;;;;38.33;35.29;98908.69;6157263;28;96665;-64
2021/07/08 14:28:32;;;;;;;;;22.00;20.00;;;;;38.16;34.96;98909.53;6163207;28;97317;-63
2021/07/08 14:31:38;;;;;;;;;22.40;21.00;;;;;38.11;35.61;98902.31;6161933;28;96790;-63
2021/07/08 14:34:43;;;;;;;;;22.00;21.00;;;;;38.17;35.62;98900.66;6153358;28;97061;-63
2021/07/08 14:37:46;;;;;;;;;22.60;22.00;;;;;38.14;35.26;98901.50;6160333;28;97629;-63
2021/07/08 14:40:49;;;;;;;;;21.60;20.60;;;;;38.13;35.42;98905.50;6144571;28;97811;-62
2021/07/08 14:44:04;;;;;;;;;20.20;19.00;;;;;38.04;35.16;98902.31;6157713;28;96747;-63
2021/07/08 14:47:08;;;;;;;;;25.50;23.00;;;;;38.04;35.58;98887.44;6136455;28;97573;-63
2021/07/08 14:50:15;;;;;;;;;24.00;22.40;;;;;38.03;35.90;98883.81;6162697;28;98072;-63
2021/07/08 14:53:18;;;;;;;;;21.75;21.00;;;;;37.97;35.49;98876.16;6166592;28;96664;-63
2021/07/08 14:56:21;;;;;;;;;23.00;21.00;;;;;37.82;36.05;98872.56;6170333;28;97077;-63
2021/07/08 14:59:25;;;;;;;;;21.80;21.20;;;;;37.94;35.87;98868.53;6171110;28;97471;-63
2021/07/08 15:02:28;;;;;;;;;21.00;20.00;;;;;37.78;35.39;98871.75;6171780;28;96542;-63
2021/07/08 15:05:33;;;;;;;;;20.00;20.00;;;;;37.52;35.55;98870.16;6149174;28;97117;-63
2021/07/08 15:08:39;;;;;;;;;22.00;21.75;;;;;37.74;35.66;98873.78;6170123;28;96660;-64
2021/07/08 15:11:42;;;;;;;;;22.60;21.00;;;;;37.80;35.33;98868.53;6170384;28;96495;-63
2021/07/08 15:14:45;;;;;;;;;21.00;20.00;;;;;37.74;34.85;98868.13;6171668;28;97491;-63
2021/07/08 15:17:48;;;;;;;;;21.00;20.67;;;;;37.83;34.98;98860.09;6154742;28;97398;-62
2021/07/08 15:20:53;;;;;;;;;22.00;20.00;;;;;37.85;36.13;98859.69;6170224;28;96467;-62
2021/07/08 15:23:56;;;;;;;;;23.40;22.00;;;;;37.84;35.55;98853.25;6170368;28;97329;-62
2021/07/08 15:26:59;;;;;;;;;24.80;21.80;;;;;37.70;34.78;98862.53;6153012;28;96583;-63
2021/07/08 15:30:03;;;;;;;;;21.00;21.00;;;;;37.43;35.38;98852.88;6171169;28;97125;-62
2021/07/08 15:33:07;;;;;;;;;24.00;22.00;;;;;37.32;35.75;98846.44;6154341;28;97224;-62
2021/07/08 15:36:12;;;;;;;;;23.20;22.00;;;;;37.37;35.01;98848.84;6170634;28;97511;-62
2021/07/08 15:39:16;;;;;;;;;22.00;21.00;;;;;37.34;35.66;98838.38;6169649;28;96520;-62
2021/07/08 15:42:19;;;;;;;;;20.00;19.40;;;;;37.24;34.64;98834.38;6168650;28;97465;-63
2021/07/08 15:45:22;;;;;;;;;21.33;20.33;;;;;37.32;35.39;98832.38;6153868;28;97585;-64
2021/07/08 15:48:26;;;;;;;;;21.40;20.40;;;;;37.17;34.51;98830.75;6165508;28;96833;-62
2021/07/08 15:51:30;;;;;;;;;19.00;18.60;;;;;37.18;34.79;98830.38;6153224;28;97352;-63
2021/07/08 15:54:36;;;;;;;;;21.50;20.50;;;;;37.26;34.89;98819.91;6152401;28;98172;-63
2021/07/08 15:57:39;;;;;;;;;21.00;20.40;;;;;37.18;34.83;98813.50;6152292;28;97200;-63
2021/07/08 16:00:43;;;;;;;;;20.60;19.40;;;;;37.15;34.58;98813.47;6169974;28;97322;-63
2021/07/08 16:03:46;;;;;;;;;22.00;21.80;;;;;37.21;35.44;98809.88;6131441;28;97792;-62
2021/07/08 16:06:51;;;;;;;;;22.60;21.00;;;;;37.25;35.13;98805.06;6166615;28;97460;-62
2021/07/08 16:09:54;;;;;;;;;21.80;20.20;;;;;37.23;34.69;98807.47;6166213;28;97420;-63
2021/07/08 16:12:57;;;;;;;;;23.80;22.00;;;;;37.25;34.79;98809.88;6164488;28;98253;-63
2021/07/08 16:16:00;;;;;;;;;22.40;22.00;;;;;37.12;34.59;98809.47;6148500;28;96755;-62
2021/07/08 16:19:04;;;;;;;;;22.00;21.00;;;;;36.91;34.92;98778.50;6164827;28;97037;-63
2021/07/08 16:22:08;;;;;;;;;20.60;20.00;;;;;36.98;34.47;98809.44;6148436;28;97193;-62
2021/07/08 16:25:12;;;;;;;;;24.00;23.40;;;;;37.03;34.75;98813.84;6165785;28;97200;-62
2021/07/08 16:28:16;;;;;;;;;25.00;24.20;;;;;36.93;34.62;98811.81;6164613;28;96709;-62
2021/07/08 16:31:20;;;;;;;;;21.00;20.00;;;;;36.68;34.95;98811.78;6164376;28;97085;-62
2021/07/08 16:34:24;;;;;;;;;23.00;21.00;;;;;36.69;35.13;98808.56;6165369;28;96969;-62
2021/07/08 16:37:29;;;;;;;;;21.00;20.00;;;;;36.70;36.05;98806.56;6138057;28;97034;-62
2021/07/08 16:40:33;;;;;;;;;22.00;20.75;;;;;36.76;35.88;98808.56;6165334;28;97414;-64
2021/07/08 16:43:36;;;;;;;;;23.00;21.60;;;;;36.74;35.64;98805.38;6163947;28;97677;-64
2021/07/08 16:46:40;;;;;;;;;22.75;22.00;;;;;36.72;35.76;98802.16;6163458;28;96684;-62
2021/07/08 16:49:43;;;;;;;;;22.00;20.00;;;;;36.51;35.58;98798.47;6165289;28;97577;-62
2021/07/08 16:52:48;;;;;;;;;20.80;20.20;;;;;36.50;35.68;98806.09;6163085;28;97393;-62
2021/07/08 16:55:53;;;;;;;;;22.40;21.40;;;;;36.54;36.16;98801.28;6164275;28;97448;-62
2021/07/08 16:58:56;;;;;;;;;22.00;21.00;;;;;36.55;36.38;98799.28;6162709;28;97132;-63
2021/07/08 17:01:59;;;;;;;;;25.00;24.00;;;;;36.60;36.10;98805.31;6141516;28;97540;-62
2021/07/08 17:05:03;;;;;;;;;25.00;24.60;;;;;36.50;36.17;98805.28;6163326;28;97898;-62
2021/07/08 17:08:08;;;;;;;;;24.00;22.40;;;;;36.44;36.39;98802.06;6163734;28;97552;-62
2021/07/08 17:11:11;;;;;;;;;24.00;24.00;;;;;36.41;36.58;98802.81;6163223;28;97649;-62
2021/07/08 17:14:15;;;;;;;;;25.00;25.00;;;;;36.23;36.45;98785.13;6163745;28;97537;-63
2021/07/08 17:17:19;;;;;;;;;24.20;23.20;;;;;36.28;36.59;98799.56;6143645;28;96681;-62
2021/07/08 17:20:22;;;;;;;;;24.00;23.20;;;;;36.05;36.49;98782.22;6164791;28;96672;-62
2021/07/08 17:23:27;;;;;;;;;24.00;22.40;;;;;36.23;36.77;98802.75;6146132;28;97755;-64
2021/07/08 17:26:30;;;;;;;;;26.00;26.00;;;;;36.19;36.96;98795.53;6162605;28;97486;-64
2021/07/08 17:29:34;;;;;;;;;22.00;22.00;;;;;36.16;37.12;98799.94;6161920;28;96545;-64
2021/07/08 17:32:38;;;;;;;;;24.00;23.00;;;;;36.12;37.34;98798.28;6162444;28;97429;-62
2021/07/08 17:35:41;;;;;;;;;25.00;24.20;;;;;36.02;37.14;98799.81;6137379;28;98488;-64
2021/07/08 17:38:47;;;;;;;;;26.00;24.00;;;;;35.88;37.61;98791.31;6162720;28;96547;-64
2021/07/08 17:41:51;;;;;;;;;27.40;26.00;;;;;35.79;37.91;98790.88;6161186;28;98038;-64
2021/07/08 17:44:54;;;;;;;;;25.75;24.75;;;;;35.58;38.19;98772.69;6162395;28;97469;-64
2021/07/08 17:47:58;;;;;;;;;23.60;23.00;;;;;35.57;38.17;98771.09;6161666;28;97603;-63
2021/07/08 17:51:01;;;;;;;;;27.00;26.50;;;;;35.49;38.19;98771.41;6161718;28;97210;-62
2021/07/08 17:54:06;;;;;;;;;25.00;23.00;;;;;35.37;38.70;98771.75;6162851;28;96708;-62
2021/07/08 17:57:09;;;;;;;;;26.00;23.60;;;;;35.27;39.03;98772.47;6162783;28;97286;-62
2021/07/08 18:00:15;;;;;;;;;24.50;23.50;;;;;35.29;39.13;98782.09;6144176;28;99536;-64
2021/07/08 18:03:18;;;;;;;;;27.20;25.60;;;;;35.26;39.15;98777.28;6145065;28;96665;-62
2021/07/08 18:06:21;;;;;;;;;25.00;24.00;;;;;35.16;39.37;98761.94;6152395;28;97461;-62
2021/07/08 18:09:26;;;;;;;;;26.20;24.20;;;;;35.04;39.72;98772.66;6144991;28;97604;-62
2021/07/08 18:12:30;;;;;;;;;28.40;26.00;;;;;34.92;40.03;98770.94;6162548;28;96773;-62
2021/07/08 18:15:33;;;;;;;;;26.00;25.40;;;;;34.87;39.92;98768.50;6161454;28;96615;-63
2021/07/08 18:18:37;;;;;;;;;25.50;23.50;;;;;34.77;40.40;98772.81;6161592;28;97340;-62
2021/07/08 18:21:40;;;;;;;;;25.60;24.00;;;;;34.71;40.49;98765.94;6161307;28;97667;-63
2021/07/08 18:25:04;;;;;;;;;26.00;23.80;;;;;34.61;40.00;98777.81;6159459;28;97042;-62
2021/07/08 18:28:08;;;;;;;;;25.25;25.00;;;;;34.55;40.72;98782.13;6160385;28;96753;-63
2021/07/08 18:31:11;;;;;;;;;28.50;26.25;;;;;34.44;40.76;98778.44;6161872;28;96762;-64
2021/07/08 18:34:14;;;;;;;;;26.20;25.00;;;;;34.33;40.86;98781.09;6162009;28;97520;-62
2021/07/08 18:37:19;;;;;;;;;26.00;25.00;;;;;34.18;41.52;98786.91;6160608;28;97450;-62
2021/07/08 18:40:25;;;;;;;;;29.00;27.00;;;;;34.15;41.57;98790.44;6143937;28;98141;-62
2021/07/08 18:43:28;;;;;;;;;25.80;24.20;;;;;34.05;41.88;98789.13;6159061;28;96660;-62
2021/07/08 18:46:32;;;;;;;;;26.00;25.00;;;;;33.99;42.06;98799.03;6160796;28;97933;-62
2021/07/08 18:49:35;;;;;;;;;29.60;28.00;;;;;33.94;42.33;98799.34;6138878;28;99581;-62
2021/07/08 18:52:39;;;;;;;;;27.00;26.00;;;;;33.92;42.12;98810.91;6143822;28;96829;-62
2021/07/08 18:55:43;;;;;;;;;30.80;28.40;;;;;33.90;42.31;98813.28;6160806;28;97432;-62
2021/07/08 18:58:46;;;;;;;;;29.00;29.00;;;;;33.89;42.60;98817.28;6126285;28;98025;-62
2021/07/08 19:01:50;;;;;;;;;29.00;26.00;;;;;33.87;42.56;98819.63;6141886;28;100218;-62
2021/07/08 19:05:13;;;;;;;;;31.00;29.00;;;;;33.82;42.77;98811.56;6161292;28;96771;-62
2021/07/08 19:08:16;;;;;;;;;29.60;28.00;;;;;33.81;42.90;98811.97;6142724;28;97600;-62
2021/07/08 19:11:21;;;;;;;;;28.00;26.50;;;;;33.79;42.92;98817.09;6160831;28;96655;-62
2021/07/08 19:14:24;;;;;;;;;30.00;29.00;;;;;33.66;43.08;98810.09;6135005;28;97486;-62
2021/07/08 19:17:44;;;;;;;;;30.25;28.00;;;;;33.69;42.97;98817.75;6157748;28;97464;-62
2021/07/08 19:20:48;;;;;;;;;29.20;27.80;;;;;33.62;43.26;98824.03;6161135;28;97583;-62
2021/07/08 19:23:55;;;;;;;;;33.00;30.00;;;;;33.51;43.25;98818.28;6160909;28;96561;-62
2021/07/08 19:27:15;;;;;;;;;32.60;29.60;;;;;33.38;43.48;98805.66;6160793;28;97083;-62
2021/07/08 19:30:20;;;;;;;;;30.60;28.60;;;;;33.42;43.59;98819.72;6160529;28;98088;-63
2021/07/08 19:33:24;;;;;;;;;29.00;27.80;;;;;33.38;43.60;98819.63;6160918;28;97233;-62
2021/07/08 19:36:28;;;;;;;;;30.60;28.60;;;;;33.35;43.73;98814.00;6160665;28;96708;-62
2021/07/08 19:39:51;;;;;;;;;30.60;28.60;;;;;33.32;43.80;98826.75;6161352;28;96639;-62
2021/07/08 19:42:57;;;;;;;;;28.60;28.60;;;;;33.27;43.82;98832.66;6164118;28;98078;-62
2021/07/08 19:46:00;;;;;;;;;31.00;29.00;;;;;33.20;43.90;98834.50;6164747;28;97084;-62
2021/07/08 19:49:03;;;;;;;;;32.00;30.00;;;;;33.09;44.41;98832.28;6164886;28;97413;-62
2021/07/08 19:52:06;;;;;;;;;30.00;28.40;;;;;33.02;44.09;98828.59;6164679;28;97486;-62
2021/07/08 19:55:11;;;;;;;;;31.25;29.25;;;;;32.99;44.32;98826.50;6164234;28;96680;-63
2021/07/08 19:58:15;;;;;;;;;31.50;30.00;;;;;32.95;44.29;98823.66;6145807;28;97161;-62
2021/07/08 20:01:19;;;;;;;;;30.00;29.00;;;;;32.90;44.52;98831.53;6164205;28;96624;-62
2021/07/08 20:04:22;;;;;;;;;31.00;28.25;;;;;32.89;44.29;98830.72;6163480;28;97407;-62
2021/07/08 20:07:26;;;;;;;;;30.00;28.60;;;;;32.86;44.33;98830.66;6147204;28;98154;-62
2021/07/08 20:10:30;;;;;;;;;32.40;30.00;;;;;32.86;44.31;98830.66;6163545;28;96696;-62
2021/07/08 20:13:34;;;;;;;;;31.00;29.00;;;;;32.80;44.86;98826.56;6145696;28;97192;-62
2021/07/08 20:16:38;;;;;;;;;31.40;28.40;;;;;32.76;44.94;98822.91;6164327;28;97017;-62
2021/07/08 20:19:41;;;;;;;;;28.33;26.67;;;;;32.73;45.10;98815.28;6164120;28;97515;-62
2021/07/08 20:22:45;;;;;;;;;30.40;28.00;;;;;32.71;45.22;98821.22;6163697;28;96486;-62
2021/07/08 20:25:48;;;;;;;;;31.00;28.80;;;;;32.67;45.28;98817.56;6163725;28;97707;-62
2021/07/08 20:28:52;;;;;;;;;30.00;28.40;;;;;32.65;45.11;98829.09;6163876;28;97508;-62
2021/07/08 20:31:56;;;;;;;;;30.80;29.40;;;;;32.58;45.39;98823.34;6163500;28;96804;-62
2021/07/08 20:34:59;;;;;;;;;33.00;30.00;;;;;32.54;45.31;98842.00;6163695;28;97505;-62
2021/07/08 20:38:03;;;;;;;;;31.60;30.00;;;;;32.47;45.41;98839.06;6144107;28;96683;-62
2021/07/08 20:41:06;;;;;;;;;31.00;30.00;;;;;32.43;45.58;98837.38;6163079;28;96766;-62
2021/07/08 20:44:11;;;;;;;;;29.25;29.25;;;;;32.39;45.53;98836.50;6163636;28;97176;-63
2021/07/08 20:47:14;;;;;;;;;34.00;31.00;;;;;32.36;45.79;98832.44;6164197;28;96779;-62
2021/07/08 20:50:19;;;;;;;;;29.00;28.00;;;;;32.33;45.76;98829.59;6163378;28;97686;-62
2021/07/08 20:53:24;;;;;;;;;32.00;29.40;;;;;32.31;45.56;98829.13;6162929;28;96984;-62
2021/07/08 20:56:27;;;;;;;;;31.75;29.00;;;;;32.28;45.57;98833.50;6163387;28;97452;-62
2021/07/08 20:59:32;;;;;;;;;30.50;29.50;;;;;32.25;45.70;98832.22;6150483;28;97553;-62
2021/07/08 21:02:35;;;;;;;;;28.20;26.20;;;;;32.23;45.65;98829.00;6162214;28;96686;-62
2021/07/08 21:05:39;;;;;;;;;28.00;28.00;;;;;32.23;45.51;98829.00;6162949;28;96694;-62
2021/07/08 21:08:42;;;;;;;;;32.40;29.00;;;;;32.12;45.76;98816.81;6163348;28;98473;-62
2021/07/08 21:11:45;;;;;;;;;31.60;29.60;;;;;32.16;45.73;98828.03;6144722;28;97805;-62
2021/07/08 21:14:57;;;;;;;;;28.60;26.60;;;;;32.11;46.02;98817.97;6159170;28;97156;-62